Nederweert, Netherlands
Current Conditions -  °F | °C
As of 11:55 AM on Thursday 23 Oct 2014 (Local Time) from EBBL Reporting Station
Broken Clouds Broken Clouds  
Wind Chill: 52°   Ceiling: 11000
Heat Index: 52°   Visibility: 6mi
Dew Point: 48°   Wind: 8mph
Humidity: 88%   Direction: 220°SW
Pressure: 30.24"   Gusts: NA
Location:  51.29°N, 5.75°E
Report Text: EBBL 230955Z 22007KT 9999 SCT038 BKN110 11/09 Q1024 BLU BLU
Loading
Personal Weather Stations






























Interactive Weather Map
Tropical Storm Tracking
New forecast layout! Learn more

10-Day Weather Forecast

Advertisements
Track Severe Weather on mobile